Startpagina
METAR-TAF:

METAR-TAF

Vliegvelden :

Luchthaven Riga

Riga, Letland

breedte: 56-55N, lengte: 023-58E, hoogte: 10 m

Actueel weer

Dit bericht is 23 minuten geleden gemaakt, om 18:20 UTC
Wind 3 kt uit het westzuidwesten, variërend tussen het zuidzuidwesten en het westen
Temperatuur 18°C
Vochtigheid 77%
Druk 1014 hPa
Zicht 10 km of meer
geen wolken onder 1500 m en geen cumulonimbus

METAR: EVRA 191820Z 24003KT 210V280 CAVOK 18/14 Q1014 NOSIG

Tijdstip: 21:43 (18:43 UTC)

Verwachting

Dit bericht is 1 uur en het 43 minuten geleden gemaakt, om 17:00 UTC
Verwachting geldig van 19 om 18 UTC tot 20 om 18 UTC
Wind 5 kt uit het zuiden
Zicht 10 km of meer
geen wolken onder 1500 m en geen cumulonimbus
Tijdelijke
van 19 om 21 UTC tot 20 om 06 UTC
Zicht: 0500 m
Gebroken wolken op 200 ft
mist
Wijzigt naar
van 20 om 09 UTC tot 20 om 11 UTC
Wind 7 kt uit het zuidwesten

TAF: EVRA 191700Z 1918/2018 17005KT CAVOK TEMPO 1921/2006 0500 FG BKN002 BECMG 2009/2011 23007KT

Waarnemingen en weersverwachtingen van meer dan 4000 vliegvelden (METAR en TAF).

De beschikbare stations zijn de gele en rode punten op de kaart.

Ga met uw muis naar het station om de naam te zien.

Klik dan om waarnemingen en weersverwachtingen te zien.

kaart wijzigen: klik op de groene knoppen met een zwart kruis om in te zoomen, op de groene knop met een streepje om uit te zoomen of op de groene pijlen voor aangrenzende kaarten.


METAR-TAF: